createdAt,value
2018-01-06T00:01:29.497Z,9.30
2018-01-06T00:04:06.781Z,9.32
2018-01-06T00:06:37.181Z,9.38
2018-01-06T00:09:08.344Z,9.34
2018-01-06T00:11:40.756Z,9.32
2018-01-06T00:14:12.438Z,9.27
2018-01-06T00:16:44.256Z,8.91
2018-01-06T00:19:16.555Z,9.02
2018-01-06T00:21:47.205Z,9.11
2018-01-06T00:24:19.515Z,9.16
2018-01-06T00:26:54.435Z,8.83
2018-01-06T00:29:29.017Z,8.66
2018-01-06T00:32:00.400Z,8.79
2018-01-06T00:34:31.083Z,8.71
2018-01-06T00:37:02.483Z,8.96
2018-01-06T00:39:34.786Z,9.04
2018-01-06T00:42:06.666Z,9.19
2018-01-06T00:44:39.023Z,9.33
2018-01-06T00:47:12.450Z,9.13
2018-01-06T00:49:43.981Z,9.20
2018-01-06T00:52:14.816Z,9.16
2018-01-06T00:54:47.684Z,9.03
2018-01-06T00:57:19.034Z,8.91
2018-01-06T00:59:49.854Z,8.92
2018-01-06T01:02:20.468Z,8.81
2018-01-06T01:04:50.904Z,8.60
2018-01-06T01:07:21.424Z,8.76
2018-01-06T01:09:52.726Z,8.73
2018-01-06T01:12:24.876Z,8.75
2018-01-06T01:15:01.331Z,9.00
2018-01-06T01:17:34.035Z,9.16
2018-01-06T01:20:05.462Z,9.23
2018-01-06T01:22:37.377Z,9.30
2018-01-06T01:25:08.511Z,9.42
2018-01-06T01:27:40.183Z,9.48
2018-01-06T01:30:15.747Z,9.45
2018-01-06T01:32:47.143Z,9.51
2018-01-06T01:35:18.071Z,9.48
2018-01-06T01:37:49.139Z,9.53
2018-01-06T01:40:21.020Z,9.57
2018-01-06T01:42:53.375Z,9.46
2018-01-06T01:45:24.266Z,9.41
2018-01-06T01:47:54.949Z,9.47
2018-01-06T01:50:25.283Z,9.32
2018-01-06T01:52:56.752Z,9.15
2018-01-06T01:55:27.911Z,8.99
2018-01-06T01:57:58.563Z,8.85
2018-01-06T02:00:29.216Z,8.74
2018-01-06T02:03:00.990Z,8.70
2018-01-06T02:05:32.256Z,8.69
2018-01-06T02:08:03.633Z,8.69
2018-01-06T02:10:34.362Z,8.66
2018-01-06T02:13:06.150Z,8.66
2018-01-06T02:15:36.789Z,8.69
2018-01-06T02:18:10.104Z,8.65
2018-01-06T02:20:42.311Z,8.69
2018-01-06T02:23:13.071Z,8.63
2018-01-06T02:25:45.873Z,8.63
2018-01-06T02:28:16.860Z,8.74
2018-01-06T02:30:50.109Z,8.63
2018-01-06T02:33:21.936Z,8.69
2018-01-06T02:35:53.228Z,8.70
2018-01-06T02:38:25.954Z,8.57
2018-01-06T02:40:58.173Z,8.41
2018-01-06T02:43:30.709Z,8.40
2018-01-06T02:46:04.812Z,8.33
2018-01-06T02:48:35.577Z,8.39
2018-01-06T02:51:06.608Z,8.56
2018-01-06T02:53:37.565Z,8.61
2018-01-06T02:56:10.225Z,8.41
2018-01-06T02:58:42.327Z,8.62
2018-01-06T03:01:13.737Z,8.60
2018-01-06T03:03:44.907Z,8.69
2018-01-06T03:06:15.690Z,8.43
2018-01-06T03:08:46.452Z,8.43
2018-01-06T03:11:17.716Z,8.54
2018-01-06T03:13:48.006Z,8.56
2018-01-06T03:16:18.824Z,8.38
2018-01-06T03:18:49.381Z,8.37
2018-01-06T03:21:19.621Z,8.18
2018-01-06T03:23:49.898Z,7.98
2018-01-06T03:26:21.240Z,7.97
2018-01-06T03:28:52.144Z,7.99
2018-01-06T03:31:28.434Z,8.24
2018-01-06T03:34:00.348Z,8.41
2018-01-06T03:36:30.706Z,8.49
2018-01-06T03:39:01.772Z,8.44
2018-01-06T03:41:32.678Z,8.26
2018-01-06T03:44:03.162Z,8.26
2018-01-06T03:46:34.506Z,8.32
2018-01-06T03:49:05.612Z,8.36
2018-01-06T03:51:36.187Z,8.39
2018-01-06T03:54:07.034Z,8.39
2018-01-06T03:56:37.492Z,8.32
2018-01-06T03:59:08.721Z,8.33
2018-01-06T04:01:40.338Z,8.26
2018-01-06T04:04:11.150Z,8.19
2018-01-06T04:06:42.554Z,8.23
2018-01-06T04:09:12.946Z,8.24
2018-01-06T04:11:44.291Z,8.29
2018-01-06T04:14:15.503Z,8.23
2018-01-06T04:16:46.228Z,8.25
2018-01-06T04:19:16.803Z,8.29
2018-01-06T04:21:47.413Z,8.10
2018-01-06T04:24:18.692Z,8.22
2018-01-06T04:26:49.951Z,8.23
2018-01-06T04:29:20.387Z,8.28
2018-01-06T04:31:56.214Z,8.29
2018-01-06T04:34:26.757Z,8.33
2018-01-06T04:37:03.878Z,8.34
2018-01-06T04:39:34.554Z,8.31
2018-01-06T04:42:05.024Z,8.25
2018-01-06T04:44:35.286Z,8.23
2018-01-06T04:47:06.959Z,8.21
2018-01-06T04:49:37.450Z,8.22
2018-01-06T04:52:08.016Z,8.20
2018-01-06T04:54:38.640Z,8.15
2018-01-06T04:57:09.351Z,8.11
2018-01-06T04:59:39.749Z,8.05
2018-01-06T05:02:10.267Z,8.01
2018-01-06T05:04:40.896Z,7.89
2018-01-06T05:07:11.477Z,7.84
2018-01-06T05:09:42.273Z,7.87
2018-01-06T05:12:12.914Z,7.93
2018-01-06T05:14:43.434Z,7.97
2018-01-06T05:17:14.321Z,7.90
2018-01-06T05:19:45.169Z,7.93
2018-01-06T05:22:15.460Z,7.88
2018-01-06T05:24:45.809Z,7.87
2018-01-06T05:27:16.354Z,7.85
2018-01-06T05:29:47.353Z,7.83
2018-01-06T05:32:18.404Z,7.88
2018-01-06T05:34:48.757Z,7.89
2018-01-06T05:37:19.968Z,7.92
2018-01-06T05:39:50.725Z,7.90
2018-01-06T05:42:21.055Z,7.80
2018-01-06T05:44:51.299Z,7.69
2018-01-06T05:47:21.751Z,7.71
2018-01-06T05:49:52.019Z,7.73
2018-01-06T05:52:22.766Z,7.72
2018-01-06T05:54:53.596Z,7.74
2018-01-06T05:57:23.973Z,7.74
2018-01-06T05:59:54.490Z,7.66
2018-01-06T06:02:25.011Z,7.62
2018-01-06T06:04:55.970Z,7.64
2018-01-06T06:07:26.953Z,7.62
2018-01-06T06:09:57.362Z,7.68
2018-01-06T06:12:28.176Z,7.74
2018-01-06T06:14:58.413Z,7.78
2018-01-06T06:17:29.690Z,7.70
2018-01-06T06:20:00.666Z,7.69
2018-01-06T06:22:31.032Z,7.75
2018-01-06T06:25:01.918Z,7.71
2018-01-06T06:27:32.742Z,7.66
2018-01-06T06:30:07.691Z,7.72
2018-01-06T06:32:38.318Z,7.69
2018-01-06T06:35:09.883Z,7.70
2018-01-06T06:37:41.478Z,7.68
2018-01-06T06:40:12.062Z,7.69
2018-01-06T06:42:44.576Z,7.64
2018-01-06T06:45:16.832Z,7.76
2018-01-06T06:47:48.396Z,7.78
2018-01-06T06:50:19.720Z,7.78
2018-01-06T06:52:50.146Z,7.75
2018-01-06T06:55:20.364Z,7.72
2018-01-06T06:57:51.536Z,7.73
2018-01-06T07:00:22.291Z,7.77
2018-01-06T07:02:53.836Z,7.53
2018-01-06T07:05:24.369Z,7.79
2018-01-06T07:07:54.935Z,7.75
2018-01-06T07:10:26.043Z,7.60
2018-01-06T07:12:57.459Z,7.57
2018-01-06T07:15:28.020Z,7.53
2018-01-06T07:17:58.680Z,7.60
2018-01-06T07:20:28.975Z,7.69
2018-01-06T07:22:59.853Z,7.78
2018-01-06T07:25:36.943Z,7.78
2018-01-06T07:28:07.904Z,7.80
2018-01-06T07:30:38.380Z,7.77
2018-01-06T07:33:12.637Z,7.75
2018-01-06T07:35:43.979Z,7.81
2018-01-06T07:38:14.844Z,7.82
2018-01-06T07:40:45.347Z,7.84
2018-01-06T07:43:16.700Z,7.92
2018-01-06T07:45:47.397Z,7.97
2018-01-06T07:48:23.564Z,8.02
2018-01-06T07:50:54.837Z,7.91
2018-01-06T07:53:25.646Z,7.96
2018-01-06T07:55:56.177Z,7.99
2018-01-06T07:58:26.443Z,8.06
2018-01-06T08:00:59.015Z,8.08
2018-01-06T08:03:29.630Z,8.17
2018-01-06T08:06:01.093Z,8.28
2018-01-06T08:08:32.330Z,8.29
2018-01-06T08:11:02.929Z,8.27
2018-01-06T08:13:33.350Z,8.24
2018-01-06T08:16:12.259Z,8.30
2018-01-06T08:18:42.810Z,8.18
2018-01-06T08:21:15.103Z,8.30
2018-01-06T08:23:45.557Z,8.40
2018-01-06T08:26:16.519Z,8.48
2018-01-06T08:28:48.963Z,8.57
2018-01-06T08:31:20.294Z,8.56
2018-01-06T08:33:50.621Z,8.66
2018-01-06T08:36:20.759Z,8.66
2018-01-06T08:38:52.501Z,8.63
2018-01-06T08:41:23.482Z,8.76
2018-01-06T08:43:53.993Z,8.86
2018-01-06T08:46:24.882Z,8.91
2018-01-06T08:48:56.347Z,8.91
2018-01-06T08:51:28.226Z,8.95
2018-01-06T08:53:59.781Z,8.96
2018-01-06T08:56:30.172Z,9.06
2018-01-06T08:59:02.313Z,9.07
2018-01-06T09:01:33.308Z,9.16
2018-01-06T09:04:04.182Z,9.21
2018-01-06T09:06:35.169Z,9.20
2018-01-06T09:09:06.586Z,9.20
2018-01-06T09:11:37.365Z,9.06
2018-01-06T09:14:07.920Z,9.26
2018-01-06T09:16:38.899Z,9.40
2018-01-06T09:19:09.295Z,9.51
2018-01-06T09:21:51.135Z,9.61
2018-01-06T09:24:22.806Z,9.67
2018-01-06T09:26:55.915Z,9.70
2018-01-06T09:29:27.192Z,9.76
2018-01-06T09:31:57.823Z,9.64
2018-01-06T09:34:28.518Z,9.66
2018-01-06T09:36:59.238Z,9.76
2018-01-06T09:39:29.981Z,9.95
2018-01-06T09:42:08.302Z,10.14
2018-01-06T09:44:38.683Z,10.22
2018-01-06T09:47:09.679Z,10.11
2018-01-06T09:49:40.417Z,10.26
2018-01-06T09:52:10.813Z,10.27
2018-01-06T09:54:43.400Z,10.33
2018-01-06T09:57:15.562Z,10.38
2018-01-06T09:59:48.678Z,10.48
2018-01-06T10:02:19.546Z,10.48
2018-01-06T10:04:50.680Z,10.70
2018-01-06T10:07:22.419Z,10.65
2018-01-06T10:09:53.595Z,10.58
2018-01-06T10:12:24.333Z,10.75
2018-01-06T10:14:56.243Z,10.84
2018-01-06T10:17:27.563Z,10.93
2018-01-06T10:19:58.180Z,10.94
2018-01-06T10:22:30.571Z,10.89
2018-01-06T10:25:03.153Z,10.97
2018-01-06T10:27:37.452Z,11.12
2018-01-06T10:30:08.868Z,11.26
2018-01-06T10:32:40.349Z,11.29
2018-01-06T10:35:11.537Z,11.32
2018-01-06T10:37:43.006Z,11.28
2018-01-06T10:40:14.390Z,11.22
2018-01-06T10:42:45.562Z,11.23
2018-01-06T10:45:19.517Z,11.33
2018-01-06T10:47:58.089Z,11.39
2018-01-06T10:50:30.690Z,11.34
2018-01-06T10:53:04.207Z,11.42
2018-01-06T10:55:34.828Z,11.51
2018-01-06T10:58:05.888Z,11.53
2018-01-06T11:00:41.995Z,11.59
2018-01-06T11:03:14.851Z,11.60
2018-01-06T11:05:47.324Z,11.66
2018-01-06T11:11:06.939Z,11.52
2018-01-06T11:13:44.883Z,11.62
2018-01-06T11:16:21.501Z,11.68
2018-01-06T11:18:59.302Z,11.64
2018-01-06T11:21:33.527Z,11.73
2018-01-06T11:24:11.685Z,11.74
2018-01-06T11:26:47.680Z,11.80
2018-01-06T11:29:24.637Z,11.91
2018-01-06T11:32:17.011Z,11.97
2018-01-06T11:34:58.399Z,12.01
2018-01-06T11:37:33.093Z,11.94
2018-01-06T11:40:13.456Z,12.00
2018-01-06T11:45:47.628Z,12.07
2018-01-06T11:48:27.588Z,12.16
2018-01-06T11:51:03.338Z,12.22
2018-01-06T11:53:38.662Z,12.28
2018-01-06T11:56:19.657Z,12.31
2018-01-06T11:59:12.463Z,12.21
2018-01-06T12:01:47.584Z,12.27
2018-01-06T12:04:21.268Z,11.99
2018-01-06T12:07:04.992Z,12.14
2018-01-06T12:09:44.654Z,12.06
2018-01-06T12:12:20.113Z,12.06
2018-01-06T12:14:55.928Z,12.20
2018-01-06T12:17:35.058Z,12.24
2018-01-06T12:20:12.185Z,12.30
2018-01-06T12:22:47.730Z,12.27
2018-01-06T12:25:27.493Z,12.31
2018-01-06T12:28:03.871Z,12.31
2018-01-06T12:30:45.222Z,12.05
2018-01-06T12:33:22.210Z,11.40
2018-01-06T12:35:58.130Z,11.55
2018-01-06T12:38:34.378Z,11.72
2018-01-06T12:41:12.314Z,11.95
2018-01-06T12:43:52.846Z,12.11
2018-01-06T12:46:29.226Z,12.22
2018-01-06T12:49:03.692Z,12.27
2018-01-06T12:51:38.534Z,12.28
2018-01-06T12:54:09.819Z,12.40
2018-01-06T12:56:40.786Z,12.38
2018-01-06T12:59:11.557Z,12.22
2018-01-06T13:01:45.389Z,12.31
2018-01-06T13:04:17.586Z,12.40
2018-01-06T13:06:48.216Z,12.39
2018-01-06T13:09:20.117Z,12.45
2018-01-06T13:11:59.834Z,12.51
2018-01-06T13:14:37.689Z,12.61
2018-01-06T13:17:13.240Z,12.56
2018-01-06T13:19:49.171Z,12.68
2018-01-06T13:22:27.532Z,12.77
2018-01-06T13:25:05.188Z,12.66
2018-01-06T13:27:42.527Z,12.58
2018-01-06T13:30:20.125Z,12.73
2018-01-06T13:32:59.622Z,12.08
2018-01-06T13:35:34.277Z,11.88
2018-01-06T13:38:10.243Z,11.99
2018-01-06T13:40:44.460Z,11.63
2018-01-06T13:43:18.817Z,11.62
2018-01-06T13:45:53.282Z,12.13
2018-01-06T13:48:32.566Z,12.35
2018-01-06T13:51:04.963Z,12.50
2018-01-06T13:53:37.410Z,12.62
2018-01-06T13:56:12.345Z,12.66
2018-01-06T13:58:49.003Z,12.74
2018-01-06T14:01:24.095Z,12.84
2018-01-06T14:03:59.816Z,12.92
2018-01-06T14:06:31.742Z,12.93
2018-01-06T14:09:07.951Z,12.97
2018-01-06T14:11:39.912Z,12.93
2018-01-06T14:14:11.531Z,12.98
2018-01-06T14:16:43.736Z,12.83
2018-01-06T14:19:16.812Z,12.92
2018-01-06T14:21:53.382Z,13.01
2018-01-06T14:24:36.581Z,13.03
2018-01-06T14:27:13.116Z,13.10
2018-01-06T14:29:45.606Z,13.10
2018-01-06T14:32:24.182Z,13.06
2018-01-06T14:35:19.937Z,13.00
2018-01-06T14:37:52.517Z,13.01
2018-01-06T14:40:23.455Z,13.03
2018-01-06T14:43:03.288Z,12.97
2018-01-06T14:45:36.706Z,12.91
2018-01-06T14:48:12.356Z,12.86
2018-01-06T14:50:42.969Z,12.78
2018-01-06T14:53:28.167Z,12.50
2018-01-06T14:56:04.580Z,12.44
2018-01-06T14:58:37.457Z,12.16
2018-01-06T15:01:12.132Z,11.84
2018-01-06T15:03:44.533Z,11.80
2018-01-06T15:06:18.309Z,11.63
2018-01-06T15:08:55.526Z,11.77
2018-01-06T15:11:51.824Z,11.71
2018-01-06T15:14:27.290Z,11.56
2018-01-06T15:17:00.158Z,11.43
2018-01-06T15:19:31.847Z,11.36
2018-01-06T15:22:05.538Z,11.44
2018-01-06T15:24:48.126Z,11.47
2018-01-06T15:27:21.964Z,11.47
2018-01-06T15:29:55.007Z,11.50
2018-01-06T15:32:32.566Z,11.58
2018-01-06T15:35:07.211Z,11.61
2018-01-06T15:37:39.097Z,11.69
2018-01-06T15:40:12.098Z,11.68
2018-01-06T15:42:43.959Z,11.61
2018-01-06T15:45:17.736Z,11.56
2018-01-06T15:47:48.238Z,11.55
2018-01-06T15:50:18.869Z,11.48
2018-01-06T15:52:49.659Z,11.36
2018-01-06T15:55:23.567Z,11.40
2018-01-06T15:57:59.162Z,11.26
2018-01-06T16:00:32.162Z,11.18
2018-01-06T16:03:04.453Z,11.23
2018-01-06T16:05:34.973Z,11.28
2018-01-06T16:08:25.487Z,11.10
2018-01-06T16:10:56.368Z,10.92
2018-01-06T16:13:27.933Z,10.91
2018-01-06T16:16:01.189Z,10.95
2018-01-06T16:18:37.779Z,10.92
2018-01-06T16:21:20.951Z,10.91
2018-01-06T16:23:52.832Z,11.05
2018-01-06T16:26:26.469Z,10.99
2018-01-06T16:29:01.912Z,10.90
2018-01-06T16:31:39.903Z,10.91
2018-01-06T16:37:05.871Z,11.06
2018-01-06T16:39:38.153Z,11.01
2018-01-06T16:42:13.397Z,10.97
2018-01-06T16:44:48.434Z,11.15
2018-01-06T16:47:23.896Z,11.02
2018-01-06T16:49:59.359Z,10.95
2018-01-06T16:52:38.018Z,10.96
2018-01-06T16:55:14.487Z,10.62
2018-01-06T16:57:50.521Z,10.41
2018-01-06T17:00:24.830Z,10.48
2018-01-06T17:02:57.746Z,10.37
2018-01-06T17:05:34.270Z,10.38
2018-01-06T17:08:08.480Z,10.39
2018-01-06T17:10:40.445Z,10.27
2018-01-06T17:13:11.862Z,10.26
2018-01-06T17:15:47.084Z,10.21
2018-01-06T17:18:20.362Z,10.36
2018-01-06T17:20:54.502Z,10.42
2018-01-06T17:23:27.767Z,10.25
2018-01-06T17:26:03.730Z,10.14
2018-01-06T17:28:41.877Z,10.28
2018-01-06T17:31:16.127Z,10.20
2018-01-06T17:33:47.386Z,10.13
2018-01-06T17:36:19.344Z,10.05
2018-01-06T17:38:51.459Z,10.01
2018-01-06T17:41:24.022Z,9.95
2018-01-06T17:43:56.894Z,9.98
2018-01-06T17:46:28.298Z,9.89
2018-01-06T17:48:59.687Z,9.87
2018-01-06T17:51:37.367Z,9.98
2018-01-06T17:54:09.235Z,9.94
2018-01-06T17:56:41.823Z,9.89
2018-01-06T17:59:13.195Z,9.91
2018-01-06T18:01:47.966Z,9.95
2018-01-06T18:04:24.898Z,10.10
2018-01-06T18:06:56.749Z,10.07
2018-01-06T18:09:29.046Z,10.00
2018-01-06T18:12:01.628Z,9.89
2018-01-06T18:14:33.617Z,9.82
2018-01-06T18:17:05.781Z,9.77
2018-01-06T18:19:41.105Z,9.83
2018-01-06T18:22:17.803Z,9.87
2018-01-06T18:24:49.008Z,9.60
2018-01-06T18:27:21.211Z,9.78
2018-01-06T18:29:54.596Z,9.81
2018-01-06T18:32:29.424Z,9.83
2018-01-06T18:35:03.031Z,9.84
2018-01-06T18:37:34.720Z,9.82
2018-01-06T18:40:06.254Z,9.88
2018-01-06T18:42:38.689Z,9.95
2018-01-06T18:45:14.124Z,9.84
2018-01-06T18:47:47.368Z,9.79
2018-01-06T18:50:22.003Z,9.79
2018-01-06T18:52:55.885Z,9.74
2018-01-06T18:55:27.599Z,9.69
2018-01-06T18:58:00.861Z,9.75
2018-01-06T19:00:37.849Z,9.76
2018-01-06T19:03:12.297Z,9.66
2018-01-06T19:05:45.668Z,9.51
2018-01-06T19:08:17.917Z,9.57
2018-01-06T19:10:49.731Z,9.63
2018-01-06T19:13:23.197Z,9.58
2018-01-06T19:15:57.592Z,9.48
2018-01-06T19:18:31.065Z,9.50
2018-01-06T19:21:03.202Z,9.49
2018-01-06T19:23:40.076Z,9.47
2018-01-06T19:26:21.992Z,9.52
2018-01-06T19:28:55.156Z,9.62
2018-01-06T19:31:32.059Z,9.49
2018-01-06T19:34:14.608Z,9.52
2018-01-06T19:36:52.676Z,9.67
2018-01-06T19:39:28.838Z,9.70
2018-01-06T19:42:03.882Z,9.64
2018-01-06T19:44:39.684Z,9.66
2018-01-06T19:47:17.260Z,9.73
2018-01-06T19:49:59.913Z,9.65
2018-01-06T19:52:50.664Z,9.56
2018-01-06T19:55:28.199Z,9.46
2018-01-06T19:58:04.882Z,9.38
2018-01-06T20:00:41.716Z,9.35
2018-01-06T20:03:15.819Z,9.35
2018-01-06T20:05:51.907Z,9.47
2018-01-06T20:08:28.323Z,9.46
2018-01-06T20:11:05.326Z,9.58
2018-01-06T20:13:37.918Z,9.56
2018-01-06T20:16:10.884Z,9.47
2018-01-06T20:18:45.169Z,9.38
2018-01-06T20:21:21.032Z,9.34
2018-01-06T20:24:05.483Z,9.34
2018-01-06T20:26:40.363Z,9.48
2018-01-06T20:29:14.872Z,9.44
2018-01-06T20:31:47.661Z,9.35
2018-01-06T20:34:23.538Z,9.37
2018-01-06T20:36:56.799Z,9.40
2018-01-06T20:39:29.126Z,9.44
2018-01-06T20:41:59.917Z,9.41
2018-01-06T20:44:30.771Z,9.50
2018-01-06T20:47:02.778Z,9.32
2018-01-06T20:49:33.852Z,9.23
2018-01-06T20:52:05.482Z,9.19
2018-01-06T20:54:36.641Z,9.20
2018-01-06T20:57:07.412Z,9.19
2018-01-06T20:59:38.261Z,9.16
2018-01-06T21:02:09.371Z,9.22
2018-01-06T21:04:40.458Z,9.22
2018-01-06T21:07:22.971Z,9.14
2018-01-06T21:09:54.097Z,9.10
2018-01-06T21:12:25.062Z,9.03
2018-01-06T21:14:55.882Z,8.94
2018-01-06T21:17:27.488Z,9.03
2018-01-06T21:19:59.929Z,9.03
2018-01-06T21:22:32.517Z,9.07
2018-01-06T21:25:05.526Z,9.08
2018-01-06T21:27:38.665Z,9.02
2018-01-06T21:30:15.744Z,9.02
2018-01-06T21:32:51.372Z,9.06
2018-01-06T21:35:29.405Z,9.11
2018-01-06T21:38:12.441Z,9.06
2018-01-06T21:40:47.383Z,9.05
2018-01-06T21:43:21.216Z,9.09
2018-01-06T21:45:56.868Z,9.15
2018-01-06T21:48:31.693Z,9.11
2018-01-06T21:51:03.798Z,9.09
2018-01-06T21:53:35.798Z,9.04
2018-01-06T21:56:07.838Z,9.01
2018-01-06T21:58:39.706Z,8.98
2018-01-06T22:01:10.727Z,8.96
2018-01-06T22:03:41.853Z,8.93
2018-01-06T22:06:14.212Z,8.92
2018-01-06T22:08:46.614Z,8.91
2018-01-06T22:11:20.134Z,8.81
2018-01-06T22:13:50.970Z,8.85
2018-01-06T22:16:22.935Z,8.72
2018-01-06T22:19:00.519Z,8.88
2018-01-06T22:21:35.123Z,8.86
2018-01-06T22:24:10.618Z,8.73
2018-01-06T22:26:41.643Z,8.77
2018-01-06T22:29:12.907Z,8.79
2018-01-06T22:31:44.475Z,8.83
2018-01-06T22:34:16.425Z,8.86
2018-01-06T22:36:47.688Z,8.81
2018-01-06T22:39:19.118Z,8.82
2018-01-06T22:41:50.918Z,8.84
2018-01-06T22:44:32.809Z,8.88
2018-01-06T22:47:04.661Z,8.88
2018-01-06T22:49:36.648Z,8.88
2018-01-06T22:52:07.678Z,8.92
2018-01-06T22:54:41.242Z,8.97
2018-01-06T22:57:13.821Z,9.01
2018-01-06T22:59:44.737Z,8.98
2018-01-06T23:02:16.506Z,8.97
2018-01-06T23:04:48.310Z,8.97
2018-01-06T23:07:21.193Z,9.00
2018-01-06T23:09:53.570Z,8.93
2018-01-06T23:12:26.415Z,8.90
2018-01-06T23:14:58.386Z,8.86
2018-01-06T23:17:31.306Z,8.87
2018-01-06T23:20:02.604Z,8.81
2018-01-06T23:22:34.027Z,8.79
2018-01-06T23:25:08.424Z,8.78
2018-01-06T23:27:39.663Z,8.82
2018-01-06T23:30:14.132Z,8.86
2018-01-06T23:32:46.518Z,8.87
2018-01-06T23:35:20.764Z,8.85
2018-01-06T23:37:55.712Z,8.84
2018-01-06T23:40:27.622Z,8.85
2018-01-06T23:42:59.542Z,8.84
2018-01-06T23:45:32.908Z,8.71
2018-01-06T23:48:07.242Z,8.64
2018-01-06T23:50:44.280Z,8.55
2018-01-06T23:53:18.348Z,8.58
2018-01-06T23:55:49.384Z,8.52
2018-01-06T23:58:26.526Z,8.46
